Map

Track Data

SID SEASON NUMBER BASIN SUBBASIN NAME ISO_TIME NATURE LAT LON WMO_WIND WMO_PRES WMO_AGENCY TRACK_TYPE DIST2LAND LANDFALL IFLAG USA_AGENCY USA_ATCF_ID USA_LAT USA_LON USA_RECORD USA_STATUS USA_WIND USA_PRES USA_SSHS USA_R34_NE USA_R34_SE USA_R34_SW USA_R34_NW USA_R50_NE USA_R50_SE USA_R50_SW USA_R50_NW USA_R64_NE USA_R64_SE USA_R64_SW USA_R64_NW USA_POCI USA_ROCI USA_RMW USA_EYE TOKYO_LAT TOKYO_LON TOKYO_GRADE TOKYO_WIND TOKYO_PRES TOKYO_R50_DIR TOKYO_R50_LONG TOKYO_R50_SHORT TOKYO_R30_DIR TOKYO_R30_LONG TOKYO_R30_SHORT TOKYO_LAND CMA_LAT CMA_LON CMA_CAT CMA_WIND CMA_PRES HKO_LAT HKO_LON HKO_CAT HKO_WIND HKO_PRES NEWDELHI_LAT NEWDELHI_LON NEWDELHI_GRADE NEWDELHI_WIND NEWDELHI_PRES NEWDELHI_CI NEWDELHI_DP NEWDELHI_POCI REUNION_LAT REUNION_LON REUNION_TYPE REUNION_WIND REUNION_PRES REUNION_TNUM REUNION_CI REUNION_RMW REUNION_R34_NE REUNION_R34_SE REUNION_R34_SW REUNION_R34_NW REUNION_R50_NE REUNION_R50_SE REUNION_R50_SW REUNION_R50_NW REUNION_R64_NE REUNION_R64_SE REUNION_R64_SW REUNION_R64_NW BOM_LAT BOM_LON BOM_TYPE BOM_WIND BOM_PRES BOM_TNUM BOM_CI BOM_RMW BOM_R34_NE BOM_R34_SE BOM_R34_SW BOM_R34_NW BOM_R50_NE BOM_R50_SE BOM_R50_SW BOM_R50_NW BOM_R64_NE BOM_R64_SE BOM_R64_SW BOM_R64_NW BOM_ROCI BOM_POCI BOM_EYE BOM_POS_METHOD BOM_PRES_METHOD NADI_LAT NADI_LON NADI_CAT NADI_WIND NADI_PRES WELLINGTON_LAT WELLINGTON_LON WELLINGTON_WIND WELLINGTON_PRES DS824_LAT DS824_LON DS824_STAGE DS824_WIND DS824_PRES TD9636_LAT TD9636_LON TD9636_STAGE TD9636_WIND TD9636_PRES TD9635_LAT TD9635_LON TD9635_WIND TD9635_PRES TD9635_ROCI NEUMANN_LAT NEUMANN_LON NEUMANN_CLASS NEUMANN_WIND NEUMANN_PRES MLC_LAT MLC_LON MLC_CLASS MLC_WIND MLC_PRES USA_GUST BOM_GUST BOM_GUST_PER REUNION_GUST REUNION_GUST_PER USA_SEAHGT USA_SEARAD_NE USA_SEARAD_SE USA_SEARAD_SW USA_SEARAD_NW STORM_SPEED STORM_DIR
1923052S16115 1923 14 SI WA NOT_NAMED 1923-02-21 06:00:00 NR -15.9000 115.300 main 546 546 _____O________ -1 -15.9000 115.300 99 9.90000 1 342
1923052S16115 1923 14 SI WA NOT_NAMED 1923-02-21 09:00:00 NR -15.8348 115.297 main 557 557 _____P________ -1 -15.8348 115.297 99 1 0
1923052S16115 1923 14 SI WA NOT_NAMED 1923-02-21 12:00:00 NR -15.7795 115.282 main 557 557 _____P________ -1 -15.7795 115.282 99 1 330
1923052S16115 1923 14 SI WA NOT_NAMED 1923-02-21 15:00:00 NR -15.7438 115.244 main 570 570 _____P________ -1 -15.7438 115.244 99 1 292
1923052S16115 1923 14 SI WA NOT_NAMED 1923-02-21 18:00:00 NR -15.7374 115.172 main 570 562 _____P________ -1 -15.7374 115.172 99 2 262
1923052S16115 1923 14 SI WA NOT_NAMED 1923-02-21 21:00:00 NR -15.7702 115.053 main 562 562 _____P________ -1 -15.7702 115.053 99 3 248
1923052S16115 1923 14 SI WA NOT_NAMED 1923-02-22 00:00:00 NR -15.8518 114.876 main 559 556 _____P________ -1 -15.8518 114.876 99 5 241
1923052S16115 1923 14 SI WA NOT_NAMED 1923-02-22 03:00:00 NR -15.9919 114.629 main 560 548 _____P________ -1 -15.9919 114.629 99 7 238
1923052S16115 1923 14 SI WA NOT_NAMED 1923-02-22 06:00:00 NR -16.2000 114.300 main 553 543 _____O________ -1 -16.2000 114.300 99 9.90000 9 236
1923052S16115 1923 14 SI WA NOT_NAMED 1923-02-22 09:00:00 NR -16.4822 113.883 main 545 539 _____P________ -1 -16.4822 113.883 99 11 234
1923052S16115 1923 14 SI WA NOT_NAMED 1923-02-22 12:00:00 NR -16.8306 113.394 main 545 535 _____P________ -1 -16.8306 113.394 99 12 233
1923052S16115 1923 14 SI WA NOT_NAMED 1923-02-22 15:00:00 NR -17.2341 112.858 main 538 502 _____P________ -1 -17.2341 112.858 99 14 231
1923052S16115 1923 14 SI WA NOT_NAMED 1923-02-22 18:00:00 NR -17.6816 112.297 main 502 478 _____P________ -1 -17.6816 112.297 99 14 229
1923052S16115 1923 14 SI WA NOT_NAMED 1923-02-22 21:00:00 NR -18.1624 111.737 main 478 464 _____P________ -1 -18.1624 111.737 99 14 227
1923052S16115 1923 14 SI WA NOT_NAMED 1923-02-23 00:00:00 NR -18.6658 111.201 main 461 457 _____P________ -1 -18.6658 111.201 99 14 224
1923052S16115 1923 14 SI WA NOT_NAMED 1923-02-23 03:00:00 NR -19.1816 110.713 main 457 450 _____P________ -1 -19.1816 110.713 99 13 219
1923052S16115 1923 14 SI WA NOT_NAMED 1923-02-23 06:00:00 NR -19.7000 110.300 main 456 450 _____O________ -1 -19.7000 110.300 99 9.90000 12 213
1923052S16115 1923 14 SI WA NOT_NAMED 1923-02-23 09:00:00 NR -20.1822 110.024 main 456 442 _____P________ -1 -20.1822 110.024 99 11 205
1923052S16115 1923 14 SI WA NOT_NAMED 1923-02-23 12:00:00 NR -20.6766 109.814 main 446 431 _____P________ -1 -20.6766 109.814 99 11 199
1923052S16115 1923 14 SI WA NOT_NAMED 1923-02-23 15:00:00 NR -21.1798 109.661 main 431 423 _____P________ -1 -21.1798 109.661 99 10 193
1923052S16115 1923 14 SI WA NOT_NAMED 1923-02-23 18:00:00 NR -21.6882 109.559 main 423 423 _____P________ -1 -21.6882 109.559 99 10 188
1923052S16115 1923 14 SI WA NOT_NAMED 1923-02-23 21:00:00 NR -22.1982 109.499 main 423 420 _____P________ -1 -22.1982 109.499 99 10 185
1923052S16115 1923 14 SI WA NOT_NAMED 1923-02-24 00:00:00 NR -22.7060 109.474 main 420 414 _____P________ -1 -22.7060 109.474 99 10 0
1923052S16115 1923 14 SI WA NOT_NAMED 1923-02-24 03:00:00 NR -23.2078 109.477 main 414 403 _____P________ -1 -23.2078 109.477 99 10 0
1923052S16115 1923 14 SI WA NOT_NAMED 1923-02-24 06:00:00 NR -23.7000 109.500 main 403 397 _____O________ -1 -23.7000 109.500 99 9.90000 9 182
1923052S16115 1923 14 SI WA NOT_NAMED 1923-02-24 09:00:00 NR -24.1290 109.427 main 406 404 _____P________ -1 -24.1290 109.427 99 9 188
1923052S16115 1923 14 SI WA NOT_NAMED 1923-02-24 12:00:00 NR -24.5446 109.372 main 404 404 _____P________ -1 -24.5446 109.372 99 8 185
1923052S16115 1923 14 SI WA NOT_NAMED 1923-02-24 15:00:00 NR -24.9566 109.346 main 419 398 _____P________ -1 -24.9566 109.346 99 8 0
1923052S16115 1923 14 SI WA NOT_NAMED 1923-02-24 18:00:00 NR -25.3746 109.358 main 398 391 _____P________ -1 -25.3746 109.358 99 9 176
1923052S16115 1923 14 SI WA NOT_NAMED 1923-02-24 21:00:00 NR -25.8083 109.419 main 391 378 _____P________ -1 -25.8083 109.419 99 9 170
1923052S16115 1923 14 SI WA NOT_NAMED 1923-02-25 00:00:00 NR -26.2674 109.539 main 378 359 _____P________ -1 -26.2674 109.539 99 10 164
1923052S16115 1923 14 SI WA NOT_NAMED 1923-02-25 03:00:00 NR -26.7614 109.729 main 362 342 _____P________ -1 -26.7614 109.729 99 11 158
1923052S16115 1923 14 SI WA NOT_NAMED 1923-02-25 06:00:00 NR -27.3000 110.000 main 345 335 _____O________ -1 -27.3000 110.000 99 9.90000 13 154
1923052S16115 1923 14 SI WA NOT_NAMED 1923-02-25 09:00:00 NR -27.8897 110.361 main 337 332 _____P________ -1 -27.8897 110.361 99 14 150
1923052S16115 1923 14 SI WA NOT_NAMED 1923-02-25 12:00:00 NR -28.5259 110.805 main 332 304 _____P________ -1 -28.5259 110.805 99 16 147
1923052S16115 1923 14 SI WA NOT_NAMED 1923-02-25 15:00:00 NR -29.2013 111.325 main 308 288 _____P________ -1 -29.2013 111.325 99 17 145
1923052S16115 1923 14 SI WA NOT_NAMED 1923-02-25 18:00:00 NR -29.9083 111.910 main 288 248 _____P________ -1 -29.9083 111.910 99 18 144
1923052S16115 1923 14 SI WA NOT_NAMED 1923-02-25 21:00:00 NR -30.6393 112.550 main 239 201 _____P________ -1 -30.6393 112.550 99 19 142
1923052S16115 1923 14 SI WA NOT_NAMED 1923-02-26 00:00:00 NR -31.3866 113.236 main 205 169 _____P________ -1 -31.3866 113.236 99 19 141
1923052S16115 1923 14 SI WA NOT_NAMED 1923-02-26 03:00:00 NR -32.1426 113.956 main 159 82 _____P________ -1 -32.1426 113.956 99 20 141
1923052S16115 1923 14 SI WA NOT_NAMED 1923-02-26 06:00:00 NR -32.9000 114.700 main 82 _____O________ -1 -32.9000 114.700 99 9.90000 20 141

About IBTrACS Database

This database is a web-friendly format of International Best Track Archive for Climate Stewardship (IBTrACS), a global best track data archive curated by NOAA dating back to 1842.

Updated: 2021-12-01